Time;durP1;ratioP1;P1;durP2;ratioP2;P2;SDS_P1;SDS_P2;PMS_P1;PMS_P2;Temp;Humidity;BMP_temperature;BMP_pressure;BME280_temperature;BME280_humidity;BME280_pressure;Samples;Min_cycle;Max_cycle;Signal;HPM_P1;HPM_P2
2024/01/28 00:00:49;;;;;;;;;30.00;26.60;;;;;11.92;100.00;102388.84;2095262;28;45597;-65
2024/01/28 00:01:50;;;;;;;;;31.50;31.00;;;;;11.89;100.00;102383.53;2095105;28;46199;-67
2024/01/28 00:02:50;;;;;;;;;29.25;28.00;;;;;11.90;100.00;102387.97;2095011;28;47086;-66
2024/01/28 00:03:50;;;;;;;;;27.50;27.50;;;;;11.84;100.00;102388.88;2094899;28;46373;-66
2024/01/28 00:04:51;;;;;;;;;30.50;28.75;;;;;11.86;100.00;102389.75;2095716;28;46337;-66
2024/01/28 00:05:51;;;;;;;;;28.00;26.25;;;;;11.86;100.00;102388.88;2095788;28;45788;-66
2024/01/28 00:06:52;;;;;;;;;28.25;26.00;;;;;11.85;100.00;102374.69;2095777;28;46501;-65
2024/01/28 00:07:52;;;;;;;;;35.25;32.50;;;;;11.83;100.00;102384.44;2094950;28;46735;-66
2024/01/28 00:08:52;;;;;;;;;31.50;31.00;;;;;11.85;100.00;102387.09;2096690;28;47030;-66
2024/01/28 00:09:53;;;;;;;;;32.75;29.25;;;;;11.84;100.00;102380.91;2094944;28;46372;-66
2024/01/28 00:10:54;;;;;;;;;34.25;32.25;;;;;11.87;100.00;102380.00;2095537;28;46210;-66
2024/01/28 00:11:54;;;;;;;;;29.80;26.80;;;;;11.88;100.00;102374.69;2095748;28;46844;-66
2024/01/28 00:12:54;;;;;;;;;29.75;29.75;;;;;11.88;100.00;102377.34;2093619;28;46496;-65
2024/01/28 00:13:55;;;;;;;;;32.25;29.50;;;;;11.88;99.77;102368.47;2092443;28;45565;-65
2024/01/28 00:14:55;;;;;;;;;29.75;29.75;;;;;11.85;99.89;102369.38;2094923;28;46502;-67
2024/01/28 00:15:55;;;;;;;;;34.25;28.75;;;;;11.85;99.97;102361.38;2095961;28;46510;-66
2024/01/28 00:16:56;;;;;;;;;33.25;31.75;;;;;11.85;99.71;102364.06;2095183;28;46350;-65
2024/01/28 00:17:56;;;;;;;;;38.50;32.00;;;;;11.84;100.00;102354.31;2095570;28;46385;-65
2024/01/28 00:18:58;;;;;;;;;29.25;28.75;;;;;11.87;100.00;102356.94;2094699;28;46526;-67
2024/01/28 00:19:58;;;;;;;;;34.20;31.40;;;;;11.87;100.00;102346.31;2094130;28;46597;-65
2024/01/28 00:20:59;;;;;;;;;31.25;30.75;;;;;11.88;100.00;102350.75;2095648;28;46199;-65
2024/01/28 00:22:00;;;;;;;;;39.25;34.25;;;;;11.87;100.00;102341.00;2094816;28;46071;-66
2024/01/28 00:23:01;;;;;;;;;43.40;37.80;;;;;11.87;99.97;102341.00;2095100;28;45829;-64
2024/01/28 00:24:04;;;;;;;;;42.40;36.20;;;;;11.87;100.00;102338.31;2095412;28;46335;-65
2024/01/28 00:25:05;;;;;;;;;39.40;33.60;;;;;11.86;99.86;102341.00;2095453;28;46662;-66
2024/01/28 00:26:07;;;;;;;;;38.50;33.50;;;;;11.85;99.95;102331.25;2095892;28;46780;-66
2024/01/28 00:27:07;;;;;;;;;40.20;35.00;;;;;11.84;100.00;102329.47;2085777;28;46399;-65
2024/01/28 00:28:07;;;;;;;;;34.50;32.50;;;;;11.82;99.85;102331.25;2085219;28;46437;-66
2024/01/28 00:29:08;;;;;;;;;43.00;35.00;;;;;11.75;99.82;102323.22;2095511;28;46123;-65
2024/01/28 00:30:09;;;;;;;;;36.75;34.00;;;;;11.74;99.91;102332.09;2095446;28;46229;-65
2024/01/28 00:31:10;;;;;;;;;48.20;40.20;;;;;11.72;100.00;102322.34;2094068;28;46855;-65
2024/01/28 00:32:10;;;;;;;;;41.80;35.40;;;;;11.68;100.00;102321.44;2094643;28;46421;-66
2024/01/28 00:33:10;;;;;;;;;47.25;41.00;;;;;11.69;100.00;102323.25;2086782;28;46789;-65
2024/01/28 00:34:11;;;;;;;;;51.50;42.75;;;;;11.72;100.00;102330.34;2086403;28;46176;-66
2024/01/28 00:35:11;;;;;;;;;46.25;38.00;;;;;11.74;100.00;102324.13;2094940;28;46301;-65
2024/01/28 00:36:15;;;;;;;;;40.25;32.25;;;;;11.81;100.00;102321.47;2095625;28;46190;-65
2024/01/28 00:37:16;;;;;;;;;36.40;34.20;;;;;11.83;100.00;102328.59;2095186;28;45065;-65
2024/01/28 00:38:16;;;;;;;;;35.00;31.00;;;;;11.78;100.00;102322.34;2094650;28;46785;-66
2024/01/28 00:39:16;;;;;;;;;38.75;34.75;;;;;11.81;100.00;102322.34;2085416;28;46484;-65
2024/01/28 00:40:17;;;;;;;;;31.75;30.00;;;;;11.80;100.00;102323.25;2085828;28;46953;-66
2024/01/28 00:41:29;;;;;;;;;33.60;32.20;;;;;11.67;100.00;102319.69;2094784;28;46252;-66
2024/01/28 00:42:29;;;;;;;;;36.20;32.40;;;;;11.71;100.00;102331.22;2087829;28;46435;-65
2024/01/28 00:43:30;;;;;;;;;42.75;35.75;;;;;11.70;100.00;102326.78;2095258;28;46303;-66
2024/01/28 00:44:31;;;;;;;;;37.25;34.25;;;;;11.70;100.00;102329.47;2095579;28;46618;-65
2024/01/28 00:45:32;;;;;;;;;40.20;34.80;;;;;11.68;100.00;102331.19;2095338;28;46820;-66
2024/01/28 00:46:32;;;;;;;;;42.25;35.25;;;;;11.68;100.00;102329.44;2095584;28;46710;-66
2024/01/28 00:47:32;;;;;;;;;40.50;34.50;;;;;11.60;100.00;102333.88;2093783;28;46289;-67
2024/01/28 00:48:33;;;;;;;;;42.25;35.50;;;;;11.64;100.00;102337.41;2094684;28;46210;-67
2024/01/28 00:49:33;;;;;;;;;39.50;35.00;;;;;11.60;100.00;102336.53;2095487;28;46551;-66
2024/01/28 00:50:33;;;;;;;;;37.50;35.00;;;;;11.62;100.00;102333.88;2094106;28;46915;-65
2024/01/28 00:51:34;;;;;;;;;35.50;34.25;;;;;11.57;100.00;102333.00;2094838;28;45613;-66
2024/01/28 00:52:34;;;;;;;;;35.25;32.75;;;;;11.56;100.00;102334.78;2095365;28;46803;-66
2024/01/28 00:53:34;;;;;;;;;39.50;35.50;;;;;11.52;100.00;102329.44;2095453;28;46648;-66
2024/01/28 00:54:34;;;;;;;;;41.25;36.00;;;;;11.48;100.00;102333.88;2094388;28;46362;-65
2024/01/28 00:55:35;;;;;;;;;41.75;36.00;;;;;11.44;100.00;102332.13;2094571;28;46318;-66
2024/01/28 00:56:35;;;;;;;;;41.25;36.25;;;;;11.38;100.00;102325.00;2095137;28;46411;-66
2024/01/28 00:57:35;;;;;;;;;35.75;33.00;;;;;11.36;100.00;102324.13;2095379;28;46589;-66
2024/01/28 00:58:36;;;;;;;;;36.50;33.00;;;;;11.36;100.00;102328.56;2095786;28;47049;-66
2024/01/28 00:59:37;;;;;;;;;5.00;3.50;;;;;11.33;100.00;102324.13;2095627;28;46587;-67
2024/01/28 01:00:40;;;;;;;;;36.50;34.25;;;;;11.35;100.00;102322.34;2095128;28;46212;-67
2024/01/28 01:01:41;;;;;;;;;41.40;35.80;;;;;11.32;100.00;102317.03;2094868;28;46187;-66
2024/01/28 01:02:41;;;;;;;;;37.50;35.00;;;;;11.36;100.00;102323.25;2094053;28;46348;-66
2024/01/28 01:03:41;;;;;;;;;40.75;35.00;;;;;11.36;100.00;102320.59;2094672;28;46920;-66
2024/01/28 01:04:42;;;;;;;;;35.00;32.25;;;;;11.34;100.00;102320.59;2093294;28;46296;-67
2024/01/28 01:05:42;;;;;;;;;42.00;37.25;;;;;11.40;100.00;102311.72;2094305;28;46334;-66
2024/01/28 01:06:43;;;;;;;;;40.25;35.50;;;;;11.38;100.00;102306.41;2095622;28;46123;-66
2024/01/28 01:07:44;;;;;;;;;40.40;36.00;;;;;11.40;100.00;102306.41;2094538;28;46268;-67
2024/01/28 01:08:44;;;;;;;;;40.25;36.25;;;;;11.40;100.00;102299.31;2094415;28;46870;-66
2024/01/28 01:09:44;;;;;;;;;42.50;36.75;;;;;11.41;100.00;102298.41;2095549;28;46475;-66
2024/01/28 01:10:45;;;;;;;;;44.25;38.25;;;;;11.43;100.00;102299.34;2095685;28;45942;-66
2024/01/28 01:11:45;;;;;;;;;41.50;36.00;;;;;11.42;100.00;102297.53;2095536;28;46602;-67
2024/01/28 01:12:45;;;;;;;;;34.50;33.75;;;;;11.37;100.00;102307.28;2095417;28;45752;-67
2024/01/28 01:13:46;;;;;;;;;34.00;32.75;;;;;11.36;100.00;102313.50;2095192;28;46292;-66
2024/01/28 01:14:46;;;;;;;;;34.50;33.25;;;;;11.34;100.00;102309.06;2095493;28;46927;-66
2024/01/28 01:15:46;;;;;;;;;42.00;35.25;;;;;11.31;100.00;102311.72;2094717;28;46451;-67
2024/01/28 01:16:47;;;;;;;;;40.75;37.00;;;;;11.25;100.00;102307.28;2095301;28;46325;-66
2024/01/28 01:17:49;;;;;;;;;44.00;37.50;;;;;11.22;100.00;102311.72;2095573;28;46231;-67
2024/01/28 01:18:49;;;;;;;;;45.80;38.00;;;;;11.23;100.00;102309.06;2094877;28;48295;-67
2024/01/28 01:19:50;;;;;;;;;39.00;35.25;;;;;11.24;100.00;102307.28;2095239;28;46377;-67
2024/01/28 01:20:53;;;;;;;;;41.25;37.50;;;;;11.29;100.00;102306.38;2094135;28;46297;-66
2024/01/28 01:21:53;;;;;;;;;36.40;32.60;;;;;11.31;100.00;102309.97;2094764;28;46411;-67
2024/01/28 01:22:54;;;;;;;;;39.25;35.75;;;;;11.30;100.00;102305.50;2095494;28;46369;-66
2024/01/28 01:23:55;;;;;;;;;42.00;36.75;;;;;11.33;100.00;102310.84;2094719;28;45605;-67
2024/01/28 01:24:55;;;;;;;;;36.75;34.75;;;;;11.34;100.00;102304.63;2095151;28;46732;-67
2024/01/28 01:25:55;;;;;;;;;42.75;35.00;;;;;11.35;100.00;102310.84;2095693;28;46446;-67
2024/01/28 01:26:56;;;;;;;;;38.75;35.25;;;;;11.32;100.00;102311.72;2094316;28;47207;-66
2024/01/28 01:27:56;;;;;;;;;41.25;35.00;;;;;11.34;100.00;102311.72;2093931;28;46063;-66
2024/01/28 01:28:56;;;;;;;;;43.00;38.25;;;;;11.35;100.00;102309.06;2095599;28;46586;-67
2024/01/28 01:29:57;;;;;;;;;43.00;38.00;;;;;11.38;100.00;102309.06;2095187;28;46344;-67
2024/01/28 01:30:58;;;;;;;;;47.25;38.00;;;;;11.37;100.00;102304.63;2093514;28;45538;-66
2024/01/28 01:31:59;;;;;;;;;38.40;34.60;;;;;11.34;100.00;102301.09;2093541;28;47003;-66
2024/01/28 01:32:59;;;;;;;;;43.75;37.25;;;;;11.32;100.00;102306.41;2095099;28;47050;-66
2024/01/28 01:33:59;;;;;;;;;41.50;38.25;;;;;11.35;100.00;102310.84;2095371;28;46127;-67
2024/01/28 01:34:59;;;;;;;;;38.25;35.25;;;;;11.31;100.00;102301.97;2094820;28;46308;-67
2024/01/28 01:36:00;;;;;;;;;44.25;36.00;;;;;11.31;100.00;102309.06;2094124;28;46281;-66
2024/01/28 01:37:00;;;;;;;;;43.75;35.25;;;;;11.34;100.00;102303.75;2095395;28;46152;-66
2024/01/28 01:38:00;;;;;;;;;46.50;40.25;;;;;11.30;100.00;102301.94;2094736;28;46474;-66
2024/01/28 01:39:01;;;;;;;;;41.75;37.25;;;;;11.27;100.00;102296.66;2094955;28;45736;-67
2024/01/28 01:40:01;;;;;;;;;40.00;36.25;;;;;11.26;100.00;102295.75;2094421;28;47341;-67
2024/01/28 01:41:02;;;;;;;;;43.75;36.25;;;;;11.27;100.00;102289.56;2095064;28;46230;-67
2024/01/28 01:42:02;;;;;;;;;42.50;35.75;;;;;11.20;100.00;102290.47;2093639;28;46705;-66
2024/01/28 01:43:09;;;;;;;;;40.25;36.75;;;;;11.17;100.00;102279.78;2093904;28;46324;-65
2024/01/28 01:44:10;;;;;;;;;39.40;36.40;;;;;11.15;100.00;102270.94;2095140;28;46718;-67
2024/01/28 01:45:10;;;;;;;;;41.20;37.20;;;;;11.15;100.00;102270.94;2095731;28;46860;-67
2024/01/28 01:46:12;;;;;;;;;40.25;35.00;;;;;11.15;100.00;102270.94;2095648;28;46225;-66
2024/01/28 01:47:12;;;;;;;;;38.80;35.20;;;;;11.12;100.00;102263.88;2095737;28;45637;-66
2024/01/28 01:48:14;;;;;;;;;39.00;34.25;;;;;11.10;100.00;102262.09;2094802;28;46370;-65
2024/01/28 01:49:14;;;;;;;;;35.80;34.40;;;;;11.11;100.00;102269.19;2094986;28;46089;-65
2024/01/28 01:50:15;;;;;;;;;40.50;36.00;;;;;11.09;100.00;102271.84;2095577;28;46171;-65
2024/01/28 01:51:16;;;;;;;;;41.50;35.50;;;;;11.06;100.00;102269.19;2095017;28;46118;-66
2024/01/28 01:52:18;;;;;;;;;35.50;33.75;;;;;11.08;100.00;102266.53;2094055;28;46713;-65
2024/01/28 01:53:19;;;;;;;;;38.00;34.80;;;;;11.05;100.00;102263.84;2093648;28;46960;-66
2024/01/28 01:54:20;;;;;;;;;33.50;30.75;;;;;11.07;100.00;102276.28;2102542;28;46525;-67
2024/01/28 01:55:20;;;;;;;;;41.40;34.20;;;;;11.03;100.00;102268.28;2102595;28;46761;-66
2024/01/28 01:56:21;;;;;;;;;35.75;34.25;;;;;11.03;100.00;102269.16;2093809;28;46240;-66
2024/01/28 01:57:24;;;;;;;;;33.80;32.00;;;;;11.01;100.00;102264.75;2094570;28;46583;-67
2024/01/28 01:58:24;;;;;;;;;35.60;33.20;;;;;11.06;100.00;102273.63;2095473;28;46798;-66
2024/01/28 01:59:25;;;;;;;;;34.25;32.50;;;;;11.02;100.00;102270.03;2095008;28;45028;-66
2024/01/28 02:00:26;;;;;;;;;30.75;30.50;;;;;11.01;100.00;102270.06;2094822;28;46734;-65
2024/01/28 02:01:29;;;;;;;;;36.50;33.75;;;;;11.00;100.00;102266.50;2094809;28;46479;-65
2024/01/28 02:02:30;;;;;;;;;33.80;32.20;;;;;11.04;100.00;102267.38;2086169;28;45931;-66
2024/01/28 02:03:30;;;;;;;;;35.00;33.50;;;;;11.03;100.00;102266.50;2094501;28;46656;-66
2024/01/28 02:04:30;;;;;;;;;36.00;32.25;;;;;11.06;100.00;102265.66;2094400;28;45605;-66
2024/01/28 02:05:30;;;;;;;;;29.50;29.50;;;;;11.07;100.00;102267.41;2095637;28;46222;-68
2024/01/28 02:06:31;;;;;;;;;29.50;27.75;;;;;11.04;100.00;102265.63;2095587;28;45709;-68
2024/01/28 02:07:31;;;;;;;;;37.25;33.00;;;;;11.03;100.00;102260.31;2095555;28;46489;-66
2024/01/28 02:08:32;;;;;;;;;30.00;28.00;;;;;11.00;100.00;102257.66;2094642;28;45969;-67
2024/01/28 02:09:34;;;;;;;;;30.00;29.75;;;;;11.01;100.00;102259.41;2095065;28;46535;-66
2024/01/28 02:10:34;;;;;;;;;40.80;34.60;;;;;11.01;100.00;102257.66;2093341;28;46392;-65
2024/01/28 02:11:34;;;;;;;;;34.25;33.00;;;;;11.02;100.00;102262.06;2094267;28;46422;-66
2024/01/28 02:12:35;;;;;;;;;32.75;31.75;;;;;11.03;100.00;102265.63;2093720;28;45963;-65
2024/01/28 02:13:37;;;;;;;;;36.75;34.25;;;;;11.14;100.00;102250.56;2094386;28;46867;-66
2024/01/28 02:14:38;;;;;;;;;35.80;32.20;;;;;11.16;100.00;102256.78;2094525;28;46539;-66
2024/01/28 02:15:39;;;;;;;;;30.20;29.20;;;;;11.15;100.00;102255.00;2093981;28;46477;-67
2024/01/28 02:16:39;;;;;;;;;37.25;33.00;;;;;11.13;100.00;102249.69;2093935;28;46032;-66
2024/01/28 02:17:39;;;;;;;;;32.00;30.00;;;;;11.11;100.00;102261.22;2095206;28;46955;-67
2024/01/28 02:18:40;;;;;;;;;32.25;30.00;;;;;11.12;100.00;102257.66;2094578;28;46552;-67
2024/01/28 02:19:40;;;;;;;;;33.25;32.75;;;;;11.12;100.00;102249.69;2094599;28;46425;-66
2024/01/28 02:20:42;;;;;;;;;34.25;32.00;;;;;11.14;100.00;102247.91;2095006;28;46960;-65
2024/01/28 02:21:42;;;;;;;;;29.80;29.60;;;;;11.12;100.00;102247.03;2095450;28;45784;-65
2024/01/28 02:22:42;;;;;;;;;34.50;33.00;;;;;11.11;100.00;102247.94;2094690;28;46508;-66
2024/01/28 02:23:43;;;;;;;;;29.75;27.00;;;;;11.09;100.00;102247.03;2093850;28;46507;-66
2024/01/28 02:24:43;;;;;;;;;32.25;29.75;;;;;11.09;100.00;102247.03;2094726;28;46536;-66
2024/01/28 02:25:44;;;;;;;;;30.50;28.25;;;;;11.13;100.00;102247.03;2095055;28;46215;-66
2024/01/28 02:26:44;;;;;;;;;24.75;24.75;;;;;11.14;100.00;102246.16;2094695;28;45606;-65
2024/01/28 02:27:46;;;;;;;;;28.25;27.00;;;;;11.14;100.00;102242.59;2094745;28;45342;-66
2024/01/28 02:28:46;;;;;;;;;27.60;27.60;;;;;11.12;100.00;102247.03;2093362;28;45765;-66
2024/01/28 02:29:47;;;;;;;;;25.50;25.50;;;;;11.07;100.00;102249.72;2094748;28;46168;-66
2024/01/28 02:30:47;;;;;;;;;27.00;27.00;;;;;11.03;100.00;102247.91;2095117;28;47018;-66
2024/01/28 02:31:47;;;;;;;;;28.25;26.75;;;;;11.05;100.00;102239.94;2094181;28;47534;-66
2024/01/28 02:32:49;;;;;;;;;30.00;28.00;;;;;11.05;100.00;102242.59;2094665;28;46631;-66
2024/01/28 02:33:49;;;;;;;;;33.20;27.00;;;;;11.00;100.00;102231.97;2094975;28;47485;-66
2024/01/28 02:34:50;;;;;;;;;29.75;27.75;;;;;11.01;100.00;102235.50;2094685;28;46541;-67
2024/01/28 02:35:50;;;;;;;;;29.25;26.75;;;;;10.97;100.00;102231.09;2095042;28;46205;-65
2024/01/28 02:36:50;;;;;;;;;25.25;25.25;;;;;10.97;100.00;102228.44;2094569;28;46576;-65
2024/01/28 02:37:51;;;;;;;;;28.25;26.25;;;;;10.93;100.00;102230.22;2094639;28;46665;-65
2024/01/28 02:38:51;;;;;;;;;21.00;20.75;;;;;10.88;100.00;102238.16;2095076;28;46560;-65
2024/01/28 02:39:51;;;;;;;;;25.00;24.00;;;;;10.93;100.00;102237.31;2093873;28;46712;-65
2024/01/28 02:40:52;;;;;;;;;23.50;23.50;;;;;10.93;100.00;102232.88;2093516;28;46596;-66
2024/01/28 02:41:52;;;;;;;;;30.25;27.25;;;;;10.94;100.00;102233.75;2093420;28;46504;-66
2024/01/28 02:42:53;;;;;;;;;32.00;31.00;;;;;10.91;100.00;102234.63;2095224;28;46347;-66
2024/01/28 02:43:54;;;;;;;;;37.75;31.00;;;;;10.89;100.00;102237.28;2094848;28;46930;-66
2024/01/28 02:44:55;;;;;;;;;28.40;28.40;;;;;10.93;100.00;102237.31;2094577;28;47222;-65
2024/01/28 02:45:55;;;;;;;;;26.75;25.75;;;;;10.94;100.00;102224.03;2094871;28;50442;-65
2024/01/28 02:46:56;;;;;;;;;28.50;25.50;;;;;10.95;100.00;102223.13;2095649;28;46441;-65
2024/01/28 02:47:56;;;;;;;;;29.50;28.00;;;;;10.94;100.00;102216.03;2093219;28;46237;-65
2024/01/28 02:48:56;;;;;;;;;25.25;25.00;;;;;10.93;100.00;102222.25;2094954;28;46261;-66
2024/01/28 02:49:57;;;;;;;;;29.25;29.00;;;;;10.99;100.00;102214.25;2095852;28;46342;-66
2024/01/28 02:50:57;;;;;;;;;30.50;27.00;;;;;11.01;100.00;102219.56;2086489;28;45572;-66
2024/01/28 02:51:57;;;;;;;;;26.50;24.50;;;;;11.01;100.00;102212.50;2094740;28;46290;-65
2024/01/28 02:52:58;;;;;;;;;25.50;25.00;;;;;10.99;100.00;102214.25;2103277;28;47126;-65
2024/01/28 02:53:58;;;;;;;;;27.00;24.25;;;;;11.06;100.00;102216.06;2103493;27;46435;-65
2024/01/28 02:54:59;;;;;;;;;24.75;23.25;;;;;11.01;100.00;102211.59;2095865;28;46598;-65
2024/01/28 02:56:00;;;;;;;;;18.25;17.25;;;;;11.03;100.00;102216.03;2096721;28;46265;-65
2024/01/28 02:57:00;;;;;;;;;24.80;21.40;;;;;11.01;100.00;102212.50;2095686;28;46416;-65
2024/01/28 02:58:01;;;;;;;;;15.50;15.00;;;;;10.99;100.00;102211.59;2096027;28;46312;-65
2024/01/28 02:59:03;;;;;;;;;21.75;19.25;;;;;10.99;100.00;102210.72;2095905;28;46506;-66
2024/01/28 03:00:04;;;;;;;;;17.40;17.40;;;;;11.01;100.00;102212.50;2095434;28;46554;-65
2024/01/28 03:01:04;;;;;;;;;19.25;19.00;;;;;10.98;100.00;102207.19;2086059;28;46075;-65
2024/01/28 03:02:04;;;;;;;;;16.50;16.50;;;;;11.01;100.00;102212.50;2086309;28;46621;-66
2024/01/28 03:03:08;;;;;;;;;22.25;18.75;;;;;11.01;100.00;102212.50;2095908;28;46484;-65
2024/01/28 03:04:09;;;;;;;;;18.60;17.60;;;;;11.03;100.00;102209.84;2094444;28;46549;-66
2024/01/28 03:05:10;;;;;;;;;17.00;17.00;;;;;11.05;100.00;102216.03;2095683;28;47188;-65
2024/01/28 03:06:10;;;;;;;;;17.80;17.40;;;;;11.02;100.00;102206.28;2095943;28;46387;-65
2024/01/28 03:07:10;;;;;;;;;13.50;12.75;;;;;11.02;100.00;102208.94;2095553;28;46568;-65
2024/01/28 03:08:11;;;;;;;;;14.25;13.25;;;;;11.03;100.00;102200.09;2096270;28;46940;-65
2024/01/28 03:09:13;;;;;;;;;14.00;13.75;;;;;11.09;100.00;102199.22;2096504;28;45344;-66
2024/01/28 03:10:13;;;;;;;;;15.00;14.25;;;;;11.10;100.00;102203.66;2094492;28;46732;-66
2024/01/28 03:11:13;;;;;;;;;12.75;10.50;;;;;11.07;100.00;102198.34;2096265;28;46513;-65
2024/01/28 03:12:14;;;;;;;;;11.75;11.75;;;;;11.08;100.00;102197.44;2095449;28;46734;-65
2024/01/28 03:13:15;;;;;;;;;10.50;10.25;;;;;11.08;100.00;102195.69;2095698;28;45888;-66
2024/01/28 03:14:15;;;;;;;;;15.33;13.33;;;;;11.09;100.00;102186.81;2095493;28;47592;-65
2024/01/28 03:15:17;;;;;;;;;15.75;13.50;;;;;11.11;100.00;102189.47;2095915;28;45875;-65
2024/01/28 03:16:17;;;;;;;;;14.00;12.20;;;;;11.11;100.00;102181.50;2095778;28;46403;-65
2024/01/28 03:17:18;;;;;;;;;10.00;10.00;;;;;11.09;100.00;102176.19;2095867;28;46878;-65
2024/01/28 03:18:18;;;;;;;;;11.50;10.75;;;;;11.10;100.00;102183.28;2095216;28;45820;-65
2024/01/28 03:19:18;;;;;;;;;13.00;12.00;;;;;11.08;100.00;102181.50;2095435;28;46686;-65
2024/01/28 03:20:19;;;;;;;;;16.33;14.33;;;;;11.08;100.00;102178.84;2095105;28;45509;-66
2024/01/28 03:21:19;;;;;;;;;13.00;12.00;;;;;11.04;100.00;102180.59;2095924;28;46641;-65
2024/01/28 03:22:20;;;;;;;;;13.00;12.00;;;;;11.05;100.00;102185.06;2095273;28;47198;-66
2024/01/28 03:23:20;;;;;;;;;13.00;13.00;;;;;11.03;100.00;102173.53;2096206;28;46667;-67
2024/01/28 03:24:21;;;;;;;;;11.33;11.33;;;;;11.03;100.00;102168.22;2095457;28;46332;-65
2024/01/28 03:25:21;;;;;;;;;13.67;13.67;;;;;11.02;100.00;102171.75;2095450;28;46160;-66
2024/01/28 03:26:22;;;;;;;;;14.00;13.00;;;;;10.99;100.00;102173.53;2095380;28;47977;-65
2024/01/28 03:27:22;;;;;;;;;14.00;12.00;;;;;10.97;100.00;102168.22;2095797;28;46309;-66
2024/01/28 03:28:23;;;;;;;;;13.50;13.50;;;;;11.01;100.00;102175.31;2095918;28;46276;-65
2024/01/28 03:29:23;;;;;;;;;13.50;13.50;;;;;11.02;100.00;102177.06;2095959;28;46716;-64
2024/01/28 03:30:23;;;;;;;;;15.00;13.00;;;;;10.97;100.00;102175.31;2096046;28;46689;-65
2024/01/28 03:31:24;;;;;;;;;11.00;11.00;;;;;10.93;100.00;102168.25;2095762;28;46253;-65
2024/01/28 03:32:24;;;;;;;;;14.25;13.25;;;;;10.91;100.00;102166.44;2095953;28;45577;-65
2024/01/28 03:33:24;;;;;;;;;15.00;13.25;;;;;10.93;100.00;102166.47;2096017;28;46533;-66
2024/01/28 03:34:25;;;;;;;;;12.75;11.75;;;;;11.01;100.00;102169.09;2095109;28;46287;-65
2024/01/28 03:35:26;;;;;;;;;12.75;12.00;;;;;11.02;100.00;102162.91;2095945;28;46618;-65
2024/01/28 03:36:26;;;;;;;;;13.25;12.75;;;;;11.05;100.00;102162.91;2096052;28;46603;-65
2024/01/28 03:37:27;;;;;;;;;13.00;13.00;;;;;11.07;100.00;102166.47;2094681;28;47281;-65
2024/01/28 03:38:27;;;;;;;;;15.75;12.50;;;;;11.07;100.00;102163.81;2095666;28;46769;-65
2024/01/28 03:39:27;;;;;;;;;14.75;14.75;;;;;11.02;100.00;102153.16;2096164;28;46993;-65
2024/01/28 03:40:28;;;;;;;;;18.00;12.50;;;;;10.99;100.00;102157.59;2095852;28;46862;-66
2024/01/28 03:41:28;;;;;;;;;16.00;14.00;;;;;10.99;100.00;102157.59;2096250;28;45727;-66
2024/01/28 03:42:29;;;;;;;;;18.00;13.75;;;;;10.97;100.00;102162.03;2095864;28;46566;-66
2024/01/28 03:43:29;;;;;;;;;15.00;13.33;;;;;10.96;100.00;102157.59;2095568;28;46722;-66
2024/01/28 03:44:29;;;;;;;;;13.33;11.00;;;;;10.98;100.00;102162.03;2095959;28;46552;-66
2024/01/28 03:45:30;;;;;;;;;14.00;13.00;;;;;11.00;100.00;102159.38;2096516;28;45540;-66
2024/01/28 03:46:30;;;;;;;;;16.00;14.00;;;;;11.02;100.00;102162.91;2094908;28;45649;-66
2024/01/28 03:47:32;;;;;;;;;13.33;13.33;;;;;11.04;100.00;102159.34;2096128;28;46020;-66
2024/01/28 03:48:32;;;;;;;;;11.50;11.00;;;;;11.05;100.00;102166.47;2094611;28;46339;-66
2024/01/28 03:49:32;;;;;;;;;11.00;10.33;;;;;11.03;100.00;102156.69;2096375;28;45515;-66
2024/01/28 03:50:33;;;;;;;;;12.50;12.00;;;;;11.02;100.00;102158.47;2095586;28;46433;-66
2024/01/28 03:51:33;;;;;;;;;14.33;13.00;;;;;11.01;100.00;102156.72;2095517;28;46534;-66
2024/01/28 03:52:34;;;;;;;;;7.67;7.67;;;;;10.98;100.00;102156.72;2096080;28;46933;-66
2024/01/28 03:53:34;;;;;;;;;12.67;12.33;;;;;10.98;100.00;102159.38;2094265;28;46386;-66
2024/01/28 03:54:35;;;;;;;;;13.00;12.00;;;;;10.96;100.00;102161.16;2094329;28;46818;-66
2024/01/28 03:55:35;;;;;;;;;13.67;13.00;;;;;10.96;100.00;102155.84;2096240;28;46855;-66
2024/01/28 03:56:35;;;;;;;;;13.50;13.50;;;;;10.93;100.00;102162.94;2094971;28;46213;-66
2024/01/28 03:57:40;;;;;;;;;15.00;15.00;;;;;10.88;100.00;102153.16;2096078;28;46191;-66
2024/01/28 03:58:40;;;;;;;;;13.50;12.00;;;;;10.86;100.00;102162.03;2096172;28;47347;-66
2024/01/28 03:59:41;;;;;;;;;11.33;11.33;;;;;10.86;100.00;102159.38;2095746;28;46017;-66
2024/01/28 04:00:41;;;;;;;;;14.00;12.33;;;;;10.86;100.00;102164.69;2103223;28;46201;-66
2024/01/28 04:01:41;;;;;;;;;14.50;14.00;;;;;10.86;100.00;102159.38;2102725;28;46511;-66
2024/01/28 04:02:42;;;;;;;;;11.33;11.33;;;;;10.87;100.00;102164.69;2095574;28;46517;-66
2024/01/28 04:03:42;;;;;;;;;12.33;12.00;;;;;10.88;100.00;102157.59;2095721;28;46367;-65
2024/01/28 04:04:42;;;;;;;;;12.33;12.33;;;;;10.88;100.00;102153.16;2095448;28;45755;-66
2024/01/28 04:05:43;;;;;;;;;11.67;11.00;;;;;10.85;100.00;102149.63;2095682;28;46468;-66
2024/01/28 04:06:44;;;;;;;;;13.75;13.75;;;;;10.81;100.00;102151.41;2095180;28;46622;-66
2024/01/28 04:07:44;;;;;;;;;11.33;10.33;;;;;10.80;100.00;102148.75;2096153;28;46331;-66
2024/01/28 04:08:44;;;;;;;;;12.00;12.00;;;;;10.81;100.00;102156.72;2095189;28;46826;-65
2024/01/28 04:09:45;;;;;;;;;14.67;12.33;;;;;10.81;100.00;102153.19;2094178;28;45427;-65
2024/01/28 04:10:45;;;;;;;;;13.33;11.00;;;;;10.79;100.00;102147.84;2095745;28;46480;-65
2024/01/28 04:11:46;;;;;;;;;14.00;14.00;;;;;10.77;100.00;102148.75;2095879;28;46494;-66
2024/01/28 04:12:46;;;;;;;;;13.00;13.00;;;;;10.76;100.00;102153.16;2095607;28;46505;-65
2024/01/28 04:13:46;;;;;;;;;14.00;13.67;;;;;10.72;100.00;102154.06;2094179;28;46286;-66
2024/01/28 04:14:47;;;;;;;;;15.50;15.00;;;;;10.67;100.00;102144.31;2094292;28;46366;-65
2024/01/28 04:15:47;;;;;;;;;13.67;12.33;;;;;10.66;100.00;102154.03;2095602;28;45895;-66
2024/01/28 04:16:48;;;;;;;;;22.00;18.00;;;;;10.71;100.00;102149.63;2095864;28;46287;-65
2024/01/28 04:17:48;;;;;;;;;15.00;15.00;;;;;10.71;100.00;102149.63;2095780;28;46136;-66
2024/01/28 04:18:49;;;;;;;;;14.67;12.33;;;;;10.72;100.00;102146.09;2095000;28;46875;-66
2024/01/28 04:19:51;;;;;;;;;15.25;12.50;;;;;10.66;100.00;102146.06;2094756;28;46776;-65
2024/01/28 04:20:52;;;;;;;;;13.25;13.25;;;;;10.64;100.00;102142.53;2095701;28;46021;-65
2024/01/28 04:21:52;;;;;;;;;13.67;13.67;;;;;10.66;100.00;102132.78;2095299;28;46866;-66
2024/01/28 04:22:53;;;;;;;;;11.33;11.33;;;;;10.66;100.00;102137.22;2095977;28;45033;-66
2024/01/28 04:23:53;;;;;;;;;13.00;13.00;;;;;10.63;100.00;102146.06;2095691;28;46370;-66
2024/01/28 04:24:53;;;;;;;;;12.00;12.00;;;;;10.60;100.00;102133.69;2095898;28;46275;-65
2024/01/28 04:25:53;;;;;;;;;14.33;14.00;;;;;10.60;100.00;102139.00;2094779;28;46668;-66
2024/01/28 04:26:55;;;;;;;;;16.00;14.75;;;;;10.56;100.00;102129.28;2094864;28;46731;-66
2024/01/28 04:27:55;;;;;;;;;12.75;12.75;;;;;10.56;100.00;102134.59;2095768;28;46886;-65
2024/01/28 04:28:56;;;;;;;;;12.00;10.67;;;;;10.61;100.00;102137.22;2095338;28;46909;-65
2024/01/28 04:29:56;;;;;;;;;11.75;11.50;;;;;10.63;100.00;102145.19;2095820;28;46553;-66
2024/01/28 04:30:58;;;;;;;;;14.00;13.75;;;;;10.64;100.00;102131.03;2095951;28;45510;-66
2024/01/28 04:31:58;;;;;;;;;11.25;11.25;;;;;10.62;100.00;102133.69;2094987;28;46985;-66
2024/01/28 04:32:59;;;;;;;;;14.00;12.50;;;;;10.63;100.00;102132.81;2095709;28;46839;-65